RKJK/KUV METAR and TAF weather

Enter ICAO airport designator
Station Type Date Time Source
RKJK METAR 2020/09/20 10:56 UTC NOAA

RKJK 201056Z AUTO 32003KT 10SM CLR 19/14 A3002 RMK AO2 SLP170 T01860137 $


Station Type Date Time Source
RKJK Decoded METAR 2020/09/20 10:56 UTC NOAA

Kunsan Ab, Korea, South (RKJK) 35-55N 126-37E 10M
Sep 20, 2020 - 06:56 AM EDT / 2020.09.20 1056 UTC
Wind: from the NW (320 degrees) at 3 MPH (3 KT):0
Visibility: 10 mile(s):0
Sky conditions: clear
Temperature: 65.5 F (18.6 C)
Dew Point: 56.7 F (13.7 C)
Relative Humidity: 73%
Pressure (altimeter): 30.02 in. Hg (1016 hPa)
ob: RKJK 201056Z AUTO 32003KT 10SM CLR 19/14 A3002 RMK AO2 SLP170 T01860137
cycle: 11

Station Type Date Time Source
RKJK TAF 2020/09/20 08:51 UTC NOAA

TAF
AMD RKJK 200830Z 2008/2113 30009KT 9999 SKC QNH3002INS
BECMG 2019/2020 VRB06KT 1600 BR SCT010 BKN030 QNH3003INS
BECMG 2100/2101 VRB06KT 9999 NSW FEW020 SCT030 QNH3004INS
BECMG 2104/2105 VRB06KT 9999 SKC QNH3000INS TX25/2104Z TN17/2022Z

Example: see airport list